Newport, RI (02840)

4:30 AM EDT on September 01, 2015 (GMT -0400)
Cardines Field | | Change Station
CLOSE
Current Station
Personal Weather Station
Location: Newport, RI
Elevation: 50 ft
Nearby Weather Stations

Elev 50 ft 41.49 °N, 71.32 °W | Updated 8 minutes ago

Clear
Clear
72.2 °F
Feels Like 72 °F
N
3.0
Wind Variable Wind from NNW
Gusts 3.0 mph

Today
High -- | Low -- °F
--% Chance of Precip.
Yesterday
High -- | Low -- °F
Precip. -- in
6:11 AM 7:18 PM
Waning Gibbous, 90% visible
Pressure 29.96 in
Visibility 10.0 miles
Clouds Clear
Heat Index 72 °F
Dew Point 67 °F
Humidity 83%
Rainfall 0.00 in
Snow Depth Not available.
UV 0 out of 12
Pollen 9.60 out of 12
Air Quality Not available.
Flu Activity Not available.
METAR KUUU 010753Z AUTO 34003KT 10SM CLR 22/17 A2997 RMK AO2 SLP146 T02170172
Pressure 29.96 in
Visibility 10.0 miles
Clouds Clear
Heat Index 72 °F
Dew Point 67 °F
Humidity 83%
Rainfall 0.00 in
Snow Depth Not available.
UV 0 out of 12
Pollen 9.60 out of 12
Air Quality Not available.
Flu Activity Not available.
METAR KUUU 010753Z AUTO 34003KT 10SM CLR 22/17 A2997 RMK AO2 SLP146 T02170172

10-Day Weather Forecast

×

Almanac

Astronomy

Sep. 01, 2015 Rise Set
Actual Time
Civil Twilight
Nautical Twilight
Astronomical Twilight
Moon
Length of Visible Light
Length of Day
Tomorrow will be .
, % of the Moon is Illuminated

Today's Extremes

State Highs State Lows

Community

WunderPhotos

Upload Photos

1,851,490 photos uploaded!

WunderBlogs® & News

Nearby

Air Quality

  Air Quality AQ Index Pollutant
Not available.

Snow Depth

Station Depth Elevation

Earthquake Activity

City Distance Mag. Time & Date
Minimum magnitude displayed is 2.5.

Coastal Water Temperatures

Place Temperature

Stations

Nearby Weather Stations

Station Location Temp. Windchill Dew Point Humidity Wind Precip. Elev Updated Type